This is the latest recevied weather packets stored in our database for station/object KG5APU. If no packets are shown the sender has not sent any weather packets the latest 10 day(s).
| Time | Temp. | Humidity | Pressure | Rain* | Wind** | Luminosity | Snow |
|---|---|---|---|---|---|---|---|
| 1777485175 | 16.67° C | 85% | 1016.7 hPa | 0 mm | - | 63 W/m² | - |
| 1777484575 | 17.22° C | 84% | 1016.1 hPa | 0 mm | - | 120 W/m² | - |
| 1777483973 | 16.67° C | 86% | 1015.3 hPa | 0 mm | - | 241 W/m² | - |
| 1777483371 | 16.11° C | 85% | 1016.2 hPa | 0 mm | - | 190 W/m² | - |
| 1777482770 | 16.11° C | 86% | 1017.1 hPa | 0 mm | - | 92 W/m² | - |
| 1777482169 | 16.11° C | 86% | 1016.7 hPa | 0 mm | - | 69 W/m² | - |
| 1777481569 | 16.11° C | 84% | 1016.9 hPa | 0 mm | - | 62 W/m² | - |
| 1777480969 | 16.11° C | 84% | 1016.9 hPa | 0 mm | - | 226 W/m² | - |
| 1777480368 | 16.67° C | 85% | 1016.8 hPa | 1.78 mm | - | 273 W/m² | - |
| 1777479766 | 16.11° C | 85% | 1016.6 hPa | 0 mm | - | 302 W/m² | - |
| 1777479166 | 16.11° C | 86% | 1017.1 hPa | 0 mm | - | 202 W/m² | - |
| 1777478565 | 15.56° C | 87% | 1016.6 hPa | 0 mm | - | 303 W/m² | - |
| 1777477964 | 15.56° C | 88% | 1016.3 hPa | 0 mm | - | 236 W/m² | - |
| 1777477362 | 15.56° C | 86% | 1016.9 hPa | 0 mm | - | 59 W/m² | - |
| 1777476762 | 15.56° C | 85% | 1017 hPa | 0 mm | - | 72 W/m² | - |
| 1777476161 | 15.56° C | 84% | 1016.8 hPa | 0 mm | - | 51 W/m² | - |
| 1777475559 | 15.56° C | 85% | 1017.1 hPa | 0 mm | - | 50 W/m² | - |
| 1777474956 | 15.56° C | 84% | 1016.6 hPa | 0 mm | - | 46 W/m² | - |
| 1777474356 | 15.56° C | 84% | 1016.3 hPa | 0 mm | - | 55 W/m² | - |
| 1777473756 | 15.56° C | 85% | 1016.4 hPa | 0 mm | - | 54 W/m² | - |
| 1777473154 | 15.56° C | 84% | 1016 hPa | 0 mm | - | 81 W/m² | - |
| 1777472552 | 15.56° C | 85% | 1016.1 hPa | 0 mm | - | 83 W/m² | - |
| 1777471952 | 15.56° C | 85% | 1016.1 hPa | 0 mm | - | 44 W/m² | - |
| 1777471351 | 15.56° C | 85% | 1016.6 hPa | 0 mm | - | 32 W/m² | - |
| 1777470750 | 15.56° C | 85% | 1016.4 hPa | 0 mm | - | 39 W/m² | - |
* Rain latest hour (hover to see other rain measurements)
** Current wind speed in m/s (hover to see current wind gust speed)